Terminal Aerodrome Forecast
Issued by NWS Melbourne, FL

Current Version | Previous Version | Text Only | Print | Product List | Glossary On
Versions: 1 2 3 4 5 6 7 8 9 10 11 12 13 14
000
FTUS42 KMLB 281120
TAFMLB
TAF
KMLB 281120Z 2812/2912 20003KT P6SM BKN100 BKN250
     FM281400 22004KT P6SM SCT035 BKN250
     FM281700 12009KT P6SM VCTS SCT035CB BKN080
     FM282300 15007KT P6SM SCT120 BKN250=

USA.gov is the U.S. government's official web portal to all federal, state and local government web resources and services.